createdAt,value
2022-08-05T00:01:35.562Z,97922.18
2022-08-05T00:04:05.179Z,97922.38
2022-08-05T00:06:36.376Z,97919.92
2022-08-05T00:09:12.802Z,97918.42
2022-08-05T00:11:49.622Z,97917.53
2022-08-05T00:14:27.594Z,97917.36
2022-08-05T00:17:01.913Z,97914.27
2022-08-05T00:19:33.698Z,97914.58
2022-08-05T00:22:11.339Z,97912.77
2022-08-05T00:24:42.356Z,97911.80
2022-08-05T00:27:28.542Z,97910.58
2022-08-05T00:29:58.805Z,97911.08
2022-08-05T00:32:28.557Z,97907.48
2022-08-05T00:35:06.399Z,97908.10
2022-08-05T00:37:52.580Z,97903.00
2022-08-05T00:40:27.149Z,97902.98
2022-08-05T00:42:59.709Z,97904.54
2022-08-05T00:45:42.848Z,97899.30
2022-08-05T00:48:13.272Z,97903.42
2022-08-05T00:50:45.817Z,97902.06
2022-08-05T00:54:00.867Z,97901.33
2022-08-05T00:56:07.916Z,97897.52
2022-08-05T00:58:38.018Z,97900.26
2022-08-05T01:01:09.061Z,97893.55
2022-08-05T01:03:39.352Z,97894.52
2022-08-05T01:06:14.038Z,97895.40
2022-08-05T01:08:46.374Z,97893.56
2022-08-05T01:11:24.131Z,97889.41
2022-08-05T01:14:15.366Z,97884.56
2022-08-05T01:16:54.279Z,97881.64
2022-08-05T01:19:30.211Z,97876.28
2022-08-05T01:22:34.152Z,97873.45
2022-08-05T01:25:08.232Z,97866.48
2022-08-05T01:27:50.608Z,97864.45
2022-08-05T01:30:34.247Z,97864.95
2022-08-05T01:33:09.589Z,97869.50
2022-08-05T01:35:50.988Z,97868.56
2022-08-05T01:38:26.811Z,97862.60
2022-08-05T01:41:01.790Z,97862.58
2022-08-05T01:43:32.674Z,97864.90
2022-08-05T01:46:06.910Z,97862.27
2022-08-05T01:48:49.388Z,97864.48
2022-08-05T01:51:19.182Z,97859.39
2022-08-05T01:53:58.126Z,97859.30
2022-08-05T01:58:09.947Z,97853.75
2022-08-05T01:59:22.198Z,97851.40
2022-08-05T02:01:54.762Z,97848.48
2022-08-05T02:04:25.950Z,97848.48
2022-08-05T02:06:54.025Z,97847.27
2022-08-05T02:09:22.142Z,97847.44
2022-08-05T02:12:11.028Z,97846.70
2022-08-05T02:14:47.993Z,97843.14
2022-08-05T02:18:27.624Z,97839.95
2022-08-05T02:20:22.197Z,97835.83
2022-08-05T02:23:00.047Z,97833.40
2022-08-05T02:25:49.355Z,97833.09
2022-08-05T02:28:29.258Z,97831.81
2022-08-05T02:31:26.519Z,97831.79
2022-08-05T02:34:02.779Z,97830.53
2022-08-05T02:36:32.714Z,97829.59
2022-08-05T02:39:03.296Z,97833.11
2022-08-05T02:41:43.221Z,97829.67
2022-08-05T02:44:24.464Z,97828.34
2022-08-05T02:47:00.269Z,97830.25
2022-08-05T02:49:36.699Z,97826.87
2022-08-05T02:52:09.377Z,97825.73
2022-08-05T02:54:41.179Z,97829.36
2022-08-05T02:58:10.337Z,97828.11
2022-08-05T03:00:04.900Z,97830.83
2022-08-05T03:02:40.594Z,97830.86
2022-08-05T03:05:12.510Z,97829.27
2022-08-05T03:08:06.705Z,97831.11
2022-08-05T03:10:30.960Z,97827.98
2022-08-05T03:15:28.485Z,97824.64
2022-08-05T03:17:57.798Z,97825.48
2022-08-05T03:20:28.447Z,97823.48
2022-08-05T03:22:57.622Z,97820.45
2022-08-05T03:25:32.989Z,97821.42
2022-08-05T03:29:03.014Z,97820.87
2022-08-05T03:31:56.520Z,97822.95
2022-08-05T03:34:27.340Z,97815.75
2022-08-05T03:36:57.250Z,97817.95
2022-08-05T03:39:27.219Z,97817.04
2022-08-05T03:41:56.972Z,97819.44
2022-08-05T03:44:26.090Z,97819.08
2022-08-05T03:46:57.217Z,97821.63
2022-08-05T03:49:30.977Z,97818.52
2022-08-05T03:52:48.515Z,97825.38
2022-08-05T03:55:52.916Z,97826.90
2022-08-05T03:58:03.770Z,97831.86
2022-08-05T04:00:33.333Z,97830.12
2022-08-05T04:03:03.558Z,97828.60
2022-08-05T04:05:36.360Z,97832.59
2022-08-05T04:08:14.504Z,97831.98
2022-08-05T04:10:59.003Z,97831.88
2022-08-05T04:13:51.142Z,97829.39
2022-08-05T04:16:24.959Z,97830.33
2022-08-05T04:18:54.898Z,97829.23
2022-08-05T04:22:08.235Z,97820.70
2022-08-05T04:24:18.839Z,97818.67
2022-08-05T04:26:47.705Z,97816.83
2022-08-05T04:29:15.602Z,97818.16
2022-08-05T04:31:43.569Z,97827.71
2022-08-05T04:34:31.247Z,97828.64
2022-08-05T04:36:59.628Z,97825.28
2022-08-05T04:39:28.831Z,97825.61
2022-08-05T04:41:56.724Z,97825.38
2022-08-05T04:44:29.904Z,97821.29
2022-08-05T04:46:59.578Z,97820.16
2022-08-05T04:49:38.767Z,97820.94
2022-08-05T04:52:16.212Z,97823.71
2022-08-05T04:54:44.274Z,97823.02
2022-08-05T04:57:12.188Z,97821.79
2022-08-05T04:59:40.734Z,97821.89
2022-08-05T05:02:41.518Z,97822.15
2022-08-05T05:05:03.105Z,97821.11
2022-08-05T05:07:35.347Z,97822.79
2022-08-05T05:10:06.661Z,97821.33
2022-08-05T05:12:36.646Z,97822.18
2022-08-05T05:15:06.024Z,97819.86
2022-08-05T05:17:55.597Z,97820.05
2022-08-05T05:20:28.374Z,97822.64
2022-08-05T05:23:24.478Z,97824.75
2022-08-05T05:25:52.609Z,97826.40
2022-08-05T05:28:20.651Z,97831.05
2022-08-05T05:30:49.581Z,97831.28
2022-08-05T05:33:18.035Z,97830.01
2022-08-05T05:35:51.843Z,97832.73
2022-08-05T05:38:22.641Z,97829.20
2022-08-05T05:40:58.006Z,97830.50
2022-08-05T05:43:54.181Z,97830.18
2022-08-05T05:46:15.915Z,97829.88
2022-08-05T05:48:48.865Z,97836.10
2022-08-05T05:51:22.343Z,97833.76
2022-08-05T05:53:57.482Z,97830.80
2022-08-05T05:56:32.487Z,97827.55
2022-08-05T05:59:07.426Z,97823.84
2022-08-05T06:01:39.401Z,97825.21
2022-08-05T06:04:11.821Z,97823.40
2022-08-05T06:06:47.290Z,97822.44
2022-08-05T06:09:25.646Z,97827.79
2022-08-05T06:12:01.160Z,97822.09
2022-08-05T06:14:31.673Z,97823.30
2022-08-05T06:17:02.091Z,97826.39
2022-08-05T06:19:56.577Z,97828.31
2022-08-05T06:22:30.557Z,97827.10
2022-08-05T06:25:25.165Z,97824.63
2022-08-05T06:28:10.999Z,97823.63
2022-08-05T06:30:41.410Z,97826.42
2022-08-05T06:33:10.652Z,97827.91
2022-08-05T06:36:07.767Z,97826.41
2022-08-05T06:38:36.745Z,97830.88
2022-08-05T06:41:08.247Z,97832.62
2022-08-05T06:43:58.727Z,97832.49
2022-08-05T06:46:30.355Z,97837.31
2022-08-05T06:49:01.217Z,97835.85
2022-08-05T06:51:31.037Z,97835.76
2022-08-05T06:54:01.968Z,97827.56
2022-08-05T06:56:34.680Z,97828.02
2022-08-05T06:59:09.490Z,97824.61
2022-08-05T07:01:40.748Z,97829.77
2022-08-05T07:04:10.927Z,97826.45
2022-08-05T07:06:42.239Z,97826.00
2022-08-05T07:09:10.304Z,97823.52
2022-08-05T07:11:39.991Z,97826.90
2022-08-05T07:14:29.513Z,97827.55
2022-08-05T07:17:58.405Z,97822.69
2022-08-05T07:20:31.226Z,97823.27
2022-08-05T07:22:39.509Z,97824.52
2022-08-05T07:25:54.728Z,97826.45
2022-08-05T07:28:04.187Z,97822.14
2022-08-05T07:30:38.693Z,97821.66
2022-08-05T07:33:15.571Z,97817.87
2022-08-05T07:36:02.310Z,97820.69
2022-08-05T07:38:43.645Z,97823.35
2022-08-05T07:42:08.573Z,97823.88
2022-08-05T07:44:18.594Z,97826.89
2022-08-05T07:46:49.501Z,97825.05
2022-08-05T07:49:19.975Z,97825.64
2022-08-05T07:51:53.423Z,97822.83
2022-08-05T07:54:31.485Z,97823.41
2022-08-05T07:57:16.709Z,97819.56
2022-08-05T07:59:51.656Z,97819.83
2022-08-05T08:02:26.757Z,97821.83
2022-08-05T08:05:02.032Z,97817.20
2022-08-05T08:07:39.677Z,97817.92
2022-08-05T08:10:20.434Z,97818.73
2022-08-05T08:12:50.013Z,97816.82
2022-08-05T08:15:18.236Z,97821.13
2022-08-05T08:18:09.911Z,97826.36
2022-08-05T08:21:02.288Z,97831.77
2022-08-05T08:24:02.126Z,97823.67
2022-08-05T08:26:27.024Z,97826.08
2022-08-05T08:29:21.616Z,97826.07
2022-08-05T08:31:49.260Z,97826.85
2022-08-05T08:34:30.148Z,97828.59
2022-08-05T08:37:04.914Z,97827.83
2022-08-05T08:39:37.110Z,97828.75
2022-08-05T08:42:33.815Z,97826.06
2022-08-05T08:45:18.096Z,97827.85
2022-08-05T08:48:11.789Z,97829.63
2022-08-05T08:51:22.806Z,97836.91
2022-08-05T08:53:37.195Z,97832.33
2022-08-05T08:57:06.025Z,97833.11
2022-08-05T09:01:00.751Z,97836.13
2022-08-05T09:05:16.714Z,97835.76
2022-08-05T09:08:58.692Z,97835.42
2022-08-05T09:12:51.122Z,97832.04
2022-08-05T09:16:42.194Z,97829.10
2022-08-05T09:20:38.382Z,97827.46
2022-08-05T09:24:27.408Z,97821.44
2022-08-05T09:28:21.027Z,97829.19
2022-08-05T09:32:42.252Z,97822.66
2022-08-05T09:36:19.922Z,97816.17
2022-08-05T09:39:16.788Z,97810.19
2022-08-05T09:41:58.691Z,97806.70
2022-08-05T09:44:35.818Z,97806.42
2022-08-05T09:47:15.435Z,97804.07
2022-08-05T09:50:00.695Z,97801.48
2022-08-05T09:52:35.847Z,97802.94
2022-08-05T09:55:57.988Z,97800.96
2022-08-05T09:57:59.844Z,97800.58
2022-08-05T10:00:30.470Z,97797.15
2022-08-05T10:02:59.160Z,97797.67
2022-08-05T10:05:32.746Z,97800.61
2022-08-05T10:08:35.823Z,97798.59
2022-08-05T10:10:54.443Z,97791.48
2022-08-05T10:13:31.615Z,97795.91
2022-08-05T10:16:29.171Z,97793.24
2022-08-05T10:18:58.383Z,97791.23
2022-08-05T10:21:27.647Z,97794.12
2022-08-05T10:24:07.551Z,97793.27
2022-08-05T10:26:49.160Z,97789.91
2022-08-05T10:29:24.058Z,97787.58
2022-08-05T10:32:53.604Z,97781.91
2022-08-05T10:35:00.881Z,97778.90
2022-08-05T10:37:40.394Z,97778.80
2022-08-05T10:40:28.546Z,97778.06
2022-08-05T10:43:04.943Z,97779.96
2022-08-05T10:45:40.291Z,97777.23
2022-08-05T10:48:35.279Z,97782.77
2022-08-05T10:51:21.975Z,97778.48
2022-08-05T10:54:22.992Z,97770.70
2022-08-05T10:56:58.544Z,97770.69
2022-08-05T11:00:04.283Z,97769.39
2022-08-05T11:02:37.490Z,97767.93
2022-08-05T11:05:10.607Z,97766.59
2022-08-05T11:08:03.201Z,97764.50
2022-08-05T11:10:50.066Z,97746.98
2022-08-05T11:13:54.923Z,97764.11
2022-08-05T11:16:33.683Z,97768.52
2022-08-05T11:20:10.047Z,97767.71
2022-08-05T11:22:49.769Z,97767.06
2022-08-05T11:26:06.105Z,97767.70
2022-08-05T11:28:33.452Z,97764.77
2022-08-05T11:31:06.577Z,97760.86
2022-08-05T11:33:53.212Z,97762.13
2022-08-05T11:36:44.597Z,97760.00
2022-08-05T11:39:18.850Z,97759.80
2022-08-05T11:42:01.462Z,97757.36
2022-08-05T11:44:52.720Z,97762.73
2022-08-05T11:47:48.517Z,97761.98
2022-08-05T11:50:14.439Z,97752.91
2022-08-05T11:52:44.113Z,97753.91
2022-08-05T11:55:15.020Z,97755.79
2022-08-05T11:58:10.319Z,97757.38
2022-08-05T12:00:38.593Z,97758.80
2022-08-05T12:03:31.632Z,97761.36
2022-08-05T12:06:06.193Z,97759.61
2022-08-05T12:08:51.006Z,97760.05
2022-08-05T12:11:21.743Z,97756.15
2022-08-05T12:14:10.212Z,97749.62
2022-08-05T12:16:41.402Z,97749.80
2022-08-05T12:20:25.839Z,97754.32
2022-08-05T12:22:09.416Z,97747.41
2022-08-05T12:24:43.734Z,97748.46
2022-08-05T12:27:33.022Z,97747.05
2022-08-05T12:30:07.573Z,97748.45
2022-08-05T12:32:50.355Z,97746.01
2022-08-05T12:35:21.714Z,97744.35
2022-08-05T12:37:50.315Z,97739.75
2022-08-05T12:40:26.723Z,97732.64
2022-08-05T12:42:58.973Z,97736.06
2022-08-05T12:45:36.862Z,97739.30
2022-08-05T12:48:27.055Z,97740.48
2022-08-05T12:52:10.671Z,97738.52
2022-08-05T12:54:02.840Z,97739.23
2022-08-05T12:56:35.079Z,97744.91
2022-08-05T12:59:23.824Z,97741.73
2022-08-05T13:02:08.247Z,97742.98
2022-08-05T13:04:52.276Z,97740.02
2022-08-05T13:07:55.738Z,97738.62
2022-08-05T13:10:19.631Z,97734.80
2022-08-05T13:12:57.919Z,97730.80
2022-08-05T13:15:42.236Z,97735.10
2022-08-05T13:18:20.066Z,97727.99
2022-08-05T13:20:49.916Z,97726.04
2022-08-05T13:23:22.616Z,97720.42
2022-08-05T13:25:59.696Z,97726.88
2022-08-05T13:28:29.490Z,97720.17
2022-08-05T13:31:11.208Z,97721.09
2022-08-05T13:34:23.605Z,97722.10
2022-08-05T13:36:31.785Z,97719.45
2022-08-05T13:40:15.094Z,97721.59
2022-08-05T13:44:05.918Z,97714.59
2022-08-05T13:47:04.971Z,97712.59
2022-08-05T13:49:36.948Z,97710.25
2022-08-05T13:52:18.314Z,97710.48
2022-08-05T13:54:53.463Z,97708.88
2022-08-05T13:57:22.476Z,97708.81
2022-08-05T13:59:57.419Z,97702.75
2022-08-05T14:02:37.323Z,97698.67
2022-08-05T14:05:15.275Z,97696.91
2022-08-05T14:08:02.705Z,97698.00
2022-08-05T14:10:34.988Z,97690.98
2022-08-05T14:13:03.045Z,97692.87
2022-08-05T14:16:08.476Z,97691.73
2022-08-05T14:18:23.413Z,97687.64
2022-08-05T14:20:54.352Z,97688.97
2022-08-05T14:23:26.062Z,97687.43
2022-08-05T14:25:58.751Z,97690.80
2022-08-05T14:28:29.792Z,97689.33
2022-08-05T14:31:00.575Z,97689.98
2022-08-05T14:33:57.003Z,97692.29
2022-08-05T14:36:21.470Z,97692.80
2022-08-05T14:38:50.966Z,97694.04
2022-08-05T14:41:20.024Z,97689.24
2022-08-05T14:43:59.106Z,97685.89
2022-08-05T14:46:31.043Z,97687.78
2022-08-05T14:49:07.000Z,97685.74
2022-08-05T14:51:38.172Z,97683.89
2022-08-05T14:54:30.049Z,97686.61
2022-08-05T14:56:56.011Z,97683.24
2022-08-05T14:59:24.248Z,97682.55
2022-08-05T15:01:53.838Z,97684.02
2022-08-05T15:04:22.690Z,97679.79
2022-08-05T15:06:51.765Z,97677.84
2022-08-05T15:09:50.542Z,97671.88
2022-08-05T15:12:11.691Z,97671.52
2022-08-05T15:14:49.593Z,97669.08
2022-08-05T15:17:45.680Z,97665.58
2022-08-05T15:20:16.999Z,97663.44
2022-08-05T15:22:52.404Z,97660.07
2022-08-05T15:25:41.235Z,97657.74
2022-08-05T15:28:15.469Z,97659.23
2022-08-05T15:30:45.734Z,97655.47
2022-08-05T15:34:04.111Z,97652.21
2022-08-05T15:36:04.954Z,97652.94
2022-08-05T15:38:42.100Z,97653.35
2022-08-05T15:41:22.782Z,97649.27
2022-08-05T15:43:54.671Z,97649.88
2022-08-05T15:46:24.932Z,97649.80
2022-08-05T15:49:00.763Z,97651.69
2022-08-05T15:52:13.655Z,97647.11
2022-08-05T15:54:34.952Z,97648.77
2022-08-05T15:57:07.773Z,97649.77
2022-08-05T15:59:38.102Z,97645.87
2022-08-05T16:02:14.331Z,97646.32
2022-08-05T16:04:44.021Z,97639.16
2022-08-05T16:07:12.314Z,97646.97
2022-08-05T16:09:42.136Z,97651.95
2022-08-05T16:12:11.892Z,97646.77
2022-08-05T16:14:40.180Z,97645.90
2022-08-05T16:17:09.503Z,97641.87
2022-08-05T16:20:03.671Z,97644.31
2022-08-05T16:22:34.095Z,97641.29
2022-08-05T16:25:08.201Z,97644.70
2022-08-05T16:27:47.173Z,97643.88
2022-08-05T16:30:28.711Z,97644.81
2022-08-05T16:32:58.272Z,97643.56
2022-08-05T16:35:28.625Z,97640.17
2022-08-05T16:38:15.095Z,97639.63
2022-08-05T16:40:51.761Z,97638.89
2022-08-05T16:43:25.691Z,97636.58
2022-08-05T16:46:07.794Z,97635.19
2022-08-05T16:48:41.501Z,97633.73
2022-08-05T16:51:10.914Z,97632.36
2022-08-05T16:54:05.991Z,97633.64
2022-08-05T16:56:31.029Z,97638.61
2022-08-05T16:59:00.972Z,97636.66
2022-08-05T17:01:54.240Z,97635.89
2022-08-05T17:04:27.369Z,97642.37
2022-08-05T17:07:03.199Z,97639.79
2022-08-05T17:09:57.367Z,97640.69
2022-08-05T17:12:50.419Z,97640.22
2022-08-05T17:15:15.490Z,97637.09
2022-08-05T17:17:55.042Z,97638.04
2022-08-05T17:20:23.594Z,97635.80
2022-08-05T17:22:55.229Z,97640.90
2022-08-05T17:25:39.377Z,97647.05
2022-08-05T17:28:09.262Z,97646.85
2022-08-05T17:30:50.232Z,97648.90
2022-08-05T17:33:19.973Z,97652.12
2022-08-05T17:36:08.918Z,97650.59
2022-08-05T17:38:35.979Z,97654.95
2022-08-05T17:41:03.796Z,97654.65
2022-08-05T17:43:50.571Z,97653.40
2022-08-05T17:46:20.438Z,97652.70
2022-08-05T17:48:48.942Z,97649.98
2022-08-05T17:51:21.434Z,97647.70
2022-08-05T17:53:54.534Z,97645.05
2022-08-05T17:56:23.012Z,97641.60
2022-08-05T17:58:56.322Z,97641.69
2022-08-05T18:01:24.247Z,97636.85
2022-08-05T18:04:04.453Z,97638.75
2022-08-05T18:06:33.589Z,97643.92
2022-08-05T18:09:03.390Z,97648.42
2022-08-05T18:11:33.151Z,97657.25
2022-08-05T18:14:03.637Z,97658.53
2022-08-05T18:16:32.865Z,97655.94
2022-08-05T18:19:00.935Z,97660.28
2022-08-05T18:22:09.137Z,97659.17
2022-08-05T18:24:16.601Z,97661.27
2022-08-05T18:26:44.835Z,97662.42
2022-08-05T18:29:16.785Z,97661.80
2022-08-05T18:31:45.007Z,97662.27
2022-08-05T18:34:12.928Z,97665.27
2022-08-05T18:36:43.654Z,97667.90
2022-08-05T18:39:22.601Z,97662.08
2022-08-05T18:42:04.756Z,97661.75
2022-08-05T18:44:35.562Z,97662.52
2022-08-05T18:47:17.355Z,97662.45
2022-08-05T18:50:03.912Z,97666.08
2022-08-05T18:52:51.451Z,97668.21
2022-08-05T18:55:21.474Z,97666.16
2022-08-05T18:57:54.159Z,97668.70
2022-08-05T19:00:31.475Z,97671.45
2022-08-05T19:03:03.697Z,97673.16
2022-08-05T19:06:12.711Z,97674.03
2022-08-05T19:08:22.455Z,97679.38
2022-08-05T19:10:59.766Z,97676.58
2022-08-05T19:14:37.919Z,97681.59
2022-08-05T19:18:10.297Z,97683.13
2022-08-05T19:21:01.652Z,97682.46
2022-08-05T19:24:07.090Z,97681.20
2022-08-05T19:26:22.068Z,97682.34
2022-08-05T19:28:49.890Z,97684.55
2022-08-05T19:31:19.519Z,97684.95
2022-08-05T19:33:56.017Z,97685.48
2022-08-05T19:36:25.484Z,97685.77
2022-08-05T19:38:54.414Z,97687.02
2022-08-05T19:41:34.774Z,97688.17
2022-08-05T19:44:13.693Z,97686.82
2022-08-05T19:46:43.735Z,97690.58
2022-08-05T19:49:12.580Z,97690.40
2022-08-05T19:52:04.459Z,97691.95
2022-08-05T19:54:34.932Z,97692.56
2022-08-05T19:57:06.889Z,97690.90
2022-08-05T19:59:55.836Z,97688.64
2022-08-05T20:02:27.992Z,97690.71
2022-08-05T20:04:58.739Z,97691.06
2022-08-05T20:07:45.747Z,97688.21
2022-08-05T20:10:16.705Z,97690.99
2022-08-05T20:12:45.934Z,97688.06
2022-08-05T20:15:48.735Z,97690.02
2022-08-05T20:18:10.819Z,97688.91
2022-08-05T20:20:55.797Z,97696.45
2022-08-05T20:23:40.240Z,97693.48
2022-08-05T20:26:15.901Z,97689.65
2022-08-05T20:28:45.665Z,97688.39
2022-08-05T20:31:13.481Z,97690.91
2022-08-05T20:33:45.364Z,97687.34
2022-08-05T20:36:16.286Z,97687.52
2022-08-05T20:38:54.663Z,97689.09
2022-08-05T20:41:44.334Z,97685.55
2022-08-05T20:44:18.789Z,97692.94
2022-08-05T20:46:57.994Z,97691.02
2022-08-05T20:49:26.277Z,97688.14
2022-08-05T20:51:54.944Z,97688.50
2022-08-05T20:54:24.717Z,97687.71
2022-08-05T20:56:53.116Z,97690.35
2022-08-05T20:59:27.017Z,97688.80
2022-08-05T21:02:09.154Z,97690.58
2022-08-05T21:04:38.499Z,97690.96
2022-08-05T21:07:06.359Z,97693.60
2022-08-05T21:09:37.215Z,97696.20
2022-08-05T21:12:19.976Z,97690.37
2022-08-05T21:14:47.828Z,97688.49
2022-08-05T21:17:16.069Z,97688.55
2022-08-05T21:19:48.045Z,97691.15
2022-08-05T21:22:23.248Z,97690.52
2022-08-05T21:24:52.738Z,97689.18
2022-08-05T21:27:24.984Z,97690.52
2022-08-05T21:29:56.244Z,97686.23
2022-08-05T21:32:27.189Z,97691.73
2022-08-05T21:35:17.728Z,97692.67
2022-08-05T21:37:53.042Z,97692.89
2022-08-05T21:40:24.765Z,97688.21
2022-08-05T21:42:53.506Z,97691.34
2022-08-05T21:45:25.166Z,97696.41
2022-08-05T21:48:10.104Z,97697.79
2022-08-05T21:50:42.479Z,97698.84
2022-08-05T21:53:27.220Z,97706.02
2022-08-05T21:56:06.039Z,97708.02
2022-08-05T21:58:42.348Z,97704.29
2022-08-05T22:01:23.901Z,97699.19
2022-08-05T22:03:53.620Z,97698.56
2022-08-05T22:06:39.480Z,97701.70
2022-08-05T22:09:13.722Z,97700.19
2022-08-05T22:11:46.698Z,97702.79
2022-08-05T22:14:37.203Z,97702.92
2022-08-05T22:17:06.795Z,97704.14
2022-08-05T22:19:57.460Z,97702.23
2022-08-05T22:22:28.049Z,97700.69
2022-08-05T22:25:21.313Z,97701.35
2022-08-05T22:28:08.390Z,97703.07
2022-08-05T22:30:44.335Z,97700.16
2022-08-05T22:33:56.996Z,97701.92
2022-08-05T22:36:14.653Z,97696.84
2022-08-05T22:38:48.054Z,97698.13
2022-08-05T22:42:04.299Z,97696.44
2022-08-05T22:44:06.852Z,97700.33
2022-08-05T22:46:40.196Z,97697.63
2022-08-05T22:49:23.590Z,97698.08
2022-08-05T22:52:05.483Z,97696.49
2022-08-05T22:54:36.337Z,97695.23
2022-08-05T22:57:07.455Z,97696.27
2022-08-05T22:59:46.114Z,97695.44
2022-08-05T23:02:18.635Z,97696.38
2022-08-05T23:05:01.910Z,97694.10
2022-08-05T23:07:44.070Z,97689.86
2022-08-05T23:10:14.497Z,97689.48
2022-08-05T23:12:43.044Z,97689.48
2022-08-05T23:15:11.986Z,97684.84
2022-08-05T23:18:02.396Z,97686.71
2022-08-05T23:20:27.589Z,97685.38
2022-08-05T23:22:58.701Z,97687.33
2022-08-05T23:25:54.758Z,97680.52
2022-08-05T23:28:15.669Z,97681.79
2022-08-05T23:30:53.361Z,97679.11
2022-08-05T23:33:26.487Z,97678.64
2022-08-05T23:36:12.337Z,97681.52
2022-08-05T23:38:42.847Z,97679.95
2022-08-05T23:41:11.417Z,97679.55
2022-08-05T23:44:03.171Z,97678.09
2022-08-05T23:46:27.002Z,97677.20
2022-08-05T23:49:00.461Z,97675.28
2022-08-05T23:51:53.764Z,97677.77
2022-08-05T23:54:25.764Z,97678.19
2022-08-05T23:56:55.340Z,97679.84
2022-08-05T23:59:27.828Z,97674.50
